sensor_id;sensor_type;location;lat;lon;timestamp;pressure;altitude;pressure_sealevel;temperature
67509;BMP280;54354;44.724;11.284;2022-09-30T00:02:09;100220.03;;;23.30
67509;BMP280;54354;44.724;11.284;2022-09-30T00:04:36;100221.25;;;23.29
67509;BMP280;54354;44.724;11.284;2022-09-30T00:07:02;100223.47;;;23.31
67509;BMP280;54354;44.724;11.284;2022-09-30T00:09:27;100219.00;;;23.33
67509;BMP280;54354;44.724;11.284;2022-09-30T00:11:53;100223.41;;;23.36
67509;BMP280;54354;44.724;11.284;2022-09-30T00:14:21;100214.56;;;23.36
67509;BMP280;54354;44.724;11.284;2022-09-30T00:16:47;100215.00;;;23.40
67509;BMP280;54354;44.724;11.284;2022-09-30T00:19:14;100214.47;;;23.42
67509;BMP280;54354;44.724;11.284;2022-09-30T00:21:39;100224.84;;;23.37
67509;BMP280;54354;44.724;11.284;2022-09-30T00:24:05;100226.59;;;23.35
67509;BMP280;54354;44.724;11.284;2022-09-30T00:26:31;100231.06;;;23.32
67509;BMP280;54354;44.724;11.284;2022-09-30T00:28:58;100234.06;;;23.29
67509;BMP280;54354;44.724;11.284;2022-09-30T00:31:26;100231.09;;;23.27
67509;BMP280;54354;44.724;11.284;2022-09-30T00:33:52;100238.47;;;23.26
67509;BMP280;54354;44.724;11.284;2022-09-30T00:36:38;100239.75;;;23.25
67509;BMP280;54354;44.724;11.284;2022-09-30T00:39:06;100241.91;;;23.27
67509;BMP280;54354;44.724;11.284;2022-09-30T00:41:33;100241.41;;;23.28
67509;BMP280;54354;44.724;11.284;2022-09-30T00:43:58;100244.84;;;23.29
67509;BMP280;54354;44.724;11.284;2022-09-30T00:46:34;100241.19;;;23.26
67509;BMP280;54354;44.724;11.284;2022-09-30T00:49:08;100250.97;;;23.29
67509;BMP280;54354;44.724;11.284;2022-09-30T00:51:40;100239.66;;;23.31
67509;BMP280;54354;44.724;11.284;2022-09-30T00:54:15;100243.63;;;23.30
67509;BMP280;54354;44.724;11.284;2022-09-30T00:56:46;100231.78;;;23.33
67509;BMP280;54354;44.724;11.284;2022-09-30T01:02:20;100245.13;;;23.44
67509;BMP280;54354;44.724;11.284;2022-09-30T01:04:46;100249.59;;;23.42
67509;BMP280;54354;44.724;11.284;2022-09-30T01:07:12;100241.00;;;23.43
67509;BMP280;54354;44.724;11.284;2022-09-30T01:09:40;100251.28;;;23.45
67509;BMP280;54354;44.724;11.284;2022-09-30T01:12:16;100255.75;;;23.42
67509;BMP280;54354;44.724;11.284;2022-09-30T01:14:45;100257.44;;;23.45
67509;BMP280;54354;44.724;11.284;2022-09-30T01:44:38;100278.53;;;23.47
67509;BMP280;54354;44.724;11.284;2022-09-30T01:52:11;100283.50;;;23.43
67509;BMP280;54354;44.724;11.284;2022-09-30T01:57:22;100273.47;;;23.37
67509;BMP280;54354;44.724;11.284;2022-09-30T01:59:56;100271.22;;;23.42
67509;BMP280;54354;44.724;11.284;2022-09-30T02:02:27;100271.03;;;23.40
67509;BMP280;54354;44.724;11.284;2022-09-30T02:05:06;100275.41;;;23.43
67509;BMP280;54354;44.724;11.284;2022-09-30T02:07:45;100269.72;;;23.84
67509;BMP280;54354;44.724;11.284;2022-09-30T02:10:19;100273.06;;;23.52
67509;BMP280;54354;44.724;11.284;2022-09-30T02:12:51;100283.50;;;23.43
67509;BMP280;54354;44.724;11.284;2022-09-30T02:15:21;100280.84;;;23.37
67509;BMP280;54354;44.724;11.284;2022-09-30T02:17:56;100282.91;;;23.31
67509;BMP280;54354;44.724;11.284;2022-09-30T02:20:35;100286.84;;;23.30
67509;BMP280;54354;44.724;11.284;2022-09-30T02:23:08;100288.84;;;23.24
67509;BMP280;54354;44.724;11.284;2022-09-30T02:25:40;100290.09;;;23.23
67509;BMP280;54354;44.724;11.284;2022-09-30T02:28:11;100296.75;;;23.22
67509;BMP280;54354;44.724;11.284;2022-09-30T02:30:38;100296.22;;;23.23
67509;BMP280;54354;44.724;11.284;2022-09-30T02:33:14;100295.34;;;23.15
67509;BMP280;54354;44.724;11.284;2022-09-30T02:35:49;100296.59;;;23.14
67509;BMP280;54354;44.724;11.284;2022-09-30T02:38:30;100292.16;;;23.11
67509;BMP280;54354;44.724;11.284;2022-09-30T02:41:10;100288.81;;;23.05
67509;BMP280;54354;44.724;11.284;2022-09-30T02:43:36;100295.44;;;23.04
67509;BMP280;54354;44.724;11.284;2022-09-30T02:48:36;100298.97;;;22.93
67509;BMP280;54354;44.724;11.284;2022-09-30T02:51:16;100295.09;;;22.89
67509;BMP280;54354;44.724;11.284;2022-09-30T02:54:00;100294.34;;;22.88
67509;BMP280;54354;44.724;11.284;2022-09-30T02:56:47;100302.44;;;22.88
67509;BMP280;54354;44.724;11.284;2022-09-30T02:59:15;100310.38;;;22.81
67509;BMP280;54354;44.724;11.284;2022-09-30T03:01:42;100310.19;;;22.73
67509;BMP280;54354;44.724;11.284;2022-09-30T03:04:10;100303.63;;;22.68
67509;BMP280;54354;44.724;11.284;2022-09-30T03:06:37;100309.47;;;22.72
67509;BMP280;54354;44.724;11.284;2022-09-30T03:09:03;100320.03;;;22.70
67509;BMP280;54354;44.724;11.284;2022-09-30T03:11:29;100326.44;;;22.67
67509;BMP280;54354;44.724;11.284;2022-09-30T03:29:06;100333.41;;;22.52
67509;BMP280;54354;44.724;11.284;2022-09-30T03:37:18;100338.34;;;22.53
67509;BMP280;54354;44.724;11.284;2022-09-30T03:40:12;100340.78;;;22.45
67509;BMP280;54354;44.724;11.284;2022-09-30T03:42:47;100344.78;;;22.39
67509;BMP280;54354;44.724;11.284;2022-09-30T03:45:31;100348.22;;;22.39
67509;BMP280;54354;44.724;11.284;2022-09-30T03:48:03;100356.28;;;22.39
67509;BMP280;54354;44.724;11.284;2022-09-30T03:50:31;100360.22;;;22.38
67509;BMP280;54354;44.724;11.284;2022-09-30T03:52:58;100364.66;;;22.36
67509;BMP280;54354;44.724;11.284;2022-09-30T03:55:24;100358.56;;;22.30
67509;BMP280;54354;44.724;11.284;2022-09-30T03:57:49;100377.72;;;22.26
67509;BMP280;54354;44.724;11.284;2022-09-30T04:00:15;100377.25;;;22.22
67509;BMP280;54354;44.724;11.284;2022-09-30T04:02:41;100374.78;;;22.24
67509;BMP280;54354;44.724;11.284;2022-09-30T04:05:07;100371.34;;;22.24
67509;BMP280;54354;44.724;11.284;2022-09-30T04:07:33;100367.91;;;22.23
67509;BMP280;54354;44.724;11.284;2022-09-30T04:09:58;100376.25;;;22.25
67509;BMP280;54354;44.724;11.284;2022-09-30T04:12:24;100372.06;;;22.24
67509;BMP280;54354;44.724;11.284;2022-09-30T04:14:50;100375.03;;;22.21
67509;BMP280;54354;44.724;11.284;2022-09-30T04:17:16;100374.53;;;22.22
67509;BMP280;54354;44.724;11.284;2022-09-30T04:19:41;100373.31;;;22.23
67509;BMP280;54354;44.724;11.284;2022-09-30T04:22:07;100380.63;;;22.23
67509;BMP280;54354;44.724;11.284;2022-09-30T04:24:34;100378.47;;;22.21
67509;BMP280;54354;44.724;11.284;2022-09-30T04:27:01;100371.84;;;22.22
67509;BMP280;54354;44.724;11.284;2022-09-30T04:29:27;100369.63;;;22.26
67509;BMP280;54354;44.724;11.284;2022-09-30T04:31:53;100377.94;;;22.28
67509;BMP280;54354;44.724;11.284;2022-09-30T04:34:19;100378.91;;;22.31
67509;BMP280;54354;44.724;11.284;2022-09-30T04:36:44;100379.63;;;22.31
67509;BMP280;54354;44.724;11.284;2022-09-30T04:39:10;100387.97;;;22.33
67509;BMP280;54354;44.724;11.284;2022-09-30T04:41:35;100391.41;;;22.34
67509;BMP280;54354;44.724;11.284;2022-09-30T04:44:01;100388.72;;;22.34
67509;BMP280;54354;44.724;11.284;2022-09-30T04:46:32;100376.69;;;22.35
67509;BMP280;54354;44.724;11.284;2022-09-30T04:48:58;100392.63;;;22.33
67509;BMP280;54354;44.724;11.284;2022-09-30T04:51:25;100388.47;;;22.32
67509;BMP280;54354;44.724;11.284;2022-09-30T04:53:51;100401.19;;;22.31
67509;BMP280;54354;44.724;11.284;2022-09-30T04:56:17;100397.31;;;22.32
67509;BMP280;54354;44.724;11.284;2022-09-30T04:58:43;100403.91;;;22.31
67509;BMP280;54354;44.724;11.284;2022-09-30T05:01:11;100412.78;;;22.26
67509;BMP280;54354;44.724;11.284;2022-09-30T05:03:37;100414.72;;;22.26
67509;BMP280;54354;44.724;11.284;2022-09-30T05:06:03;100423.09;;;22.22
67509;BMP280;54354;44.724;11.284;2022-09-30T05:08:29;100433.88;;;22.22
67509;BMP280;54354;44.724;11.284;2022-09-30T05:10:59;100433.41;;;22.18
67509;BMP280;54354;44.724;11.284;2022-09-30T05:13:28;100429.44;;;22.19
67509;BMP280;54354;44.724;11.284;2022-09-30T05:15:55;100435.09;;;22.21
67509;BMP280;54354;44.724;11.284;2022-09-30T05:18:21;100438.06;;;22.17
67509;BMP280;54354;44.724;11.284;2022-09-30T05:20:51;100444.94;;;22.13
67509;BMP280;54354;44.724;11.284;2022-09-30T05:23:17;100452.03;;;22.16
67509;BMP280;54354;44.724;11.284;2022-09-30T05:25:44;100451.06;;;22.13
67509;BMP280;54354;44.724;11.284;2022-09-30T05:28:11;100453.03;;;22.13
67509;BMP280;54354;44.724;11.284;2022-09-30T05:30:37;100463.06;;;22.12
67509;BMP280;54354;44.724;11.284;2022-09-30T05:33:03;100458.91;;;22.11
67509;BMP280;54354;44.724;11.284;2022-09-30T05:35:29;100472.41;;;22.11
67509;BMP280;54354;44.724;11.284;2022-09-30T05:37:54;100474.59;;;22.13
67509;BMP280;54354;44.724;11.284;2022-09-30T05:40:20;100479.50;;;22.14
67509;BMP280;54354;44.724;11.284;2022-09-30T05:42:45;100478.78;;;22.14
67509;BMP280;54354;44.724;11.284;2022-09-30T05:45:12;100484.66;;;22.12
67509;BMP280;54354;44.724;11.284;2022-09-30T05:47:39;100496.41;;;22.15
67509;BMP280;54354;44.724;11.284;2022-09-30T05:50:05;100493.72;;;22.15
67509;BMP280;54354;44.724;11.284;2022-09-30T05:52:31;100490.50;;;22.16
67509;BMP280;54354;44.724;11.284;2022-09-30T05:54:56;100501.06;;;22.20
67509;BMP280;54354;44.724;11.284;2022-09-30T05:57:26;100509.91;;;22.21
67509;BMP280;54354;44.724;11.284;2022-09-30T05:59:54;100512.09;;;22.22
67509;BMP280;54354;44.724;11.284;2022-09-30T06:02:19;100520.69;;;22.26
67509;BMP280;54354;44.724;11.284;2022-09-30T06:04:45;100526.78;;;22.27
67509;BMP280;54354;44.724;11.284;2022-09-30T06:07:11;100551.28;;;22.29
67509;BMP280;54354;44.724;11.284;2022-09-30T06:09:38;100562.31;;;22.31
67509;BMP280;54354;44.724;11.284;2022-09-30T06:12:03;100558.66;;;22.34
67509;BMP280;54354;44.724;11.284;2022-09-30T06:14:30;100558.91;;;22.36
67509;BMP280;54354;44.724;11.284;2022-09-30T06:16:57;100561.84;;;22.38
67509;BMP280;54354;44.724;11.284;2022-09-30T06:19:27;100557.16;;;22.38
67509;BMP280;54354;44.724;11.284;2022-09-30T06:21:58;100559.59;;;22.42
67509;BMP280;54354;44.724;11.284;2022-09-30T06:24:24;100567.19;;;22.43
67509;BMP280;54354;44.724;11.284;2022-09-30T06:26:50;100562.56;;;22.44
67509;BMP280;54354;44.724;11.284;2022-09-30T06:29:16;100568.69;;;22.44
67509;BMP280;54354;44.724;11.284;2022-09-30T06:31:41;100571.38;;;22.44
67509;BMP280;54354;44.724;11.284;2022-09-30T06:34:07;100585.09;;;22.46
67509;BMP280;54354;44.724;11.284;2022-09-30T06:36:32;100584.13;;;22.50
67509;BMP280;54354;44.724;11.284;2022-09-30T06:39:02;100595.16;;;22.46
67509;BMP280;54354;44.724;11.284;2022-09-30T06:41:28;100597.38;;;22.53
67509;BMP280;54354;44.724;11.284;2022-09-30T06:43:55;100601.06;;;22.50
67509;BMP280;54354;44.724;11.284;2022-09-30T06:46:22;100610.63;;;22.51
67509;BMP280;54354;44.724;11.284;2022-09-30T06:48:57;100611.34;;;22.52
67509;BMP280;54354;44.724;11.284;2022-09-30T06:51:23;100610.84;;;22.59
67509;BMP280;54354;44.724;11.284;2022-09-30T06:53:54;100609.34;;;22.63
67509;BMP280;54354;44.724;11.284;2022-09-30T06:56:21;100599.28;;;22.64
67509;BMP280;54354;44.724;11.284;2022-09-30T06:58:47;100608.84;;;22.65
67509;BMP280;54354;44.724;11.284;2022-09-30T07:01:13;100600.03;;;22.64
67509;BMP280;54354;44.724;11.284;2022-09-30T07:03:44;100605.19;;;22.62
67509;BMP280;54354;44.724;11.284;2022-09-30T07:06:11;100603.69;;;22.61
67509;BMP280;54354;44.724;11.284;2022-09-30T07:08:37;100600.28;;;22.61
67509;BMP280;54354;44.724;11.284;2022-09-30T07:11:07;100612.78;;;22.58
67509;BMP280;54354;44.724;11.284;2022-09-30T07:13:37;100610.59;;;22.62
67509;BMP280;54354;44.724;11.284;2022-09-30T07:16:04;100612.56;;;22.62
67509;BMP280;54354;44.724;11.284;2022-09-30T07:18:30;100612.78;;;22.64
67509;BMP280;54354;44.724;11.284;2022-09-30T07:20:56;100607.63;;;22.66
67509;BMP280;54354;44.724;11.284;2022-09-30T07:23:22;100621.13;;;22.71
67509;BMP280;54354;44.724;11.284;2022-09-30T07:25:58;100633.38;;;22.72
67509;BMP280;54354;44.724;11.284;2022-09-30T07:28:28;100638.03;;;22.77
67509;BMP280;54354;44.724;11.284;2022-09-30T07:30:58;100638.75;;;22.84
67509;BMP280;54354;44.724;11.284;2022-09-30T07:33:25;100645.38;;;22.83
67509;BMP280;54354;44.724;11.284;2022-09-30T07:35:55;100649.03;;;22.85
67509;BMP280;54354;44.724;11.284;2022-09-30T07:38:23;100659.34;;;22.87
67509;BMP280;54354;44.724;11.284;2022-09-30T07:40:53;100663.75;;;22.90
67509;BMP280;54354;44.724;11.284;2022-09-30T07:43:19;100669.13;;;23.01
67509;BMP280;54354;44.724;11.284;2022-09-30T07:45:47;100664.19;;;22.99
67509;BMP280;54354;44.724;11.284;2022-09-30T07:48:12;100673.75;;;23.12
67509;BMP280;54354;44.724;11.284;2022-09-30T07:50:58;100677.63;;;23.22
67509;BMP280;54354;44.724;11.284;2022-09-30T07:53:23;100694.31;;;23.26
67509;BMP280;54354;44.724;11.284;2022-09-30T07:55:49;100705.38;;;23.28
67509;BMP280;54354;44.724;11.284;2022-09-30T07:58:14;100709.50;;;23.34
67509;BMP280;54354;44.724;11.284;2022-09-30T08:00:40;100695.53;;;23.36
67509;BMP280;54354;44.724;11.284;2022-09-30T08:03:07;100691.56;;;23.37
67509;BMP280;54354;44.724;11.284;2022-09-30T08:05:38;100691.56;;;23.37
67509;BMP280;54354;44.724;11.284;2022-09-30T08:08:04;100685.88;;;23.46
67509;BMP280;54354;44.724;11.284;2022-09-30T08:10:34;100695.69;;;23.49
67509;BMP280;54354;44.724;11.284;2022-09-30T08:13:00;100706.22;;;23.58
67509;BMP280;54354;44.724;11.284;2022-09-30T08:15:25;100715.00;;;23.64
67509;BMP280;54354;44.724;11.284;2022-09-30T08:17:51;100723.09;;;23.70
67509;BMP280;54354;44.724;11.284;2022-09-30T08:20:16;100737.81;;;23.75
67509;BMP280;54354;44.724;11.284;2022-09-30T08:22:42;100740.25;;;23.78
67509;BMP280;54354;44.724;11.284;2022-09-30T08:25:07;100731.13;;;23.81
67509;BMP280;54354;44.724;11.284;2022-09-30T08:27:33;100724.75;;;23.79
67509;BMP280;54354;44.724;11.284;2022-09-30T08:29:59;100732.16;;;23.78
67509;BMP280;54354;44.724;11.284;2022-09-30T08:32:24;100733.16;;;23.75
67509;BMP280;54354;44.724;11.284;2022-09-30T08:34:49;100727.50;;;23.73
67509;BMP280;54354;44.724;11.284;2022-09-30T08:37:15;100729.22;;;23.76
67509;BMP280;54354;44.724;11.284;2022-09-30T08:39:40;100730.91;;;23.79
67509;BMP280;54354;44.724;11.284;2022-09-30T08:42:22;100732.88;;;23.79
67509;BMP280;54354;44.724;11.284;2022-09-30T08:44:51;100743.41;;;23.88
67509;BMP280;54354;44.724;11.284;2022-09-30T08:47:39;100738.22;;;23.95
67509;BMP280;54354;44.724;11.284;2022-09-30T08:52:59;100745.50;;;24.01
67509;BMP280;54354;44.724;11.284;2022-09-30T08:55:43;100745.50;;;24.01
67509;BMP280;54354;44.724;11.284;2022-09-30T09:03:42;100753.34;;;24.04
67509;BMP280;54354;44.724;11.284;2022-09-30T09:15:02;100791.47;;;24.06
67509;BMP280;54354;44.724;11.284;2022-09-30T09:20:16;100809.69;;;24.00
67509;BMP280;54354;44.724;11.284;2022-09-30T09:22:43;100804.56;;;24.02
67509;BMP280;54354;44.724;11.284;2022-09-30T09:25:18;100806.53;;;24.02
67509;BMP280;54354;44.724;11.284;2022-09-30T09:27:52;100809.69;;;24.06
67509;BMP280;54354;44.724;11.284;2022-09-30T09:30:21;100800.91;;;23.94
67509;BMP280;54354;44.724;11.284;2022-09-30T09:32:51;100800.00;;;23.75
67509;BMP280;54354;44.724;11.284;2022-09-30T09:46:50;100829.13;;;23.41
67509;BMP280;54354;44.724;11.284;2022-09-30T09:54:21;100824.94;;;23.51
67509;BMP280;54354;44.724;11.284;2022-09-30T09:56:46;100816.06;;;23.45
67509;BMP280;54354;44.724;11.284;2022-09-30T10:04:38;100824.19;;;23.50
67509;BMP280;54354;44.724;11.284;2022-09-30T10:07:18;100826.41;;;23.46
67509;BMP280;54354;44.724;11.284;2022-09-30T10:09:44;100824.41;;;23.52
67509;BMP280;54354;44.724;11.284;2022-09-30T10:14:38;100820.03;;;23.38
67509;BMP280;54354;44.724;11.284;2022-09-30T10:19:53;100823.72;;;23.29
67509;BMP280;54354;44.724;11.284;2022-09-30T10:22:26;100831.13;;;23.23
67509;BMP280;54354;44.724;11.284;2022-09-30T10:30:31;100837.97;;;23.41
67509;BMP280;54354;44.724;11.284;2022-09-30T10:32:58;100840.38;;;23.56
67509;BMP280;54354;44.724;11.284;2022-09-30T10:35:26;100854.59;;;23.67
67509;BMP280;54354;44.724;11.284;2022-09-30T10:37:52;100858.75;;;23.74
67509;BMP280;54354;44.724;11.284;2022-09-30T10:40:20;100858.00;;;23.79
67509;BMP280;54354;44.724;11.284;2022-09-30T10:42:51;100856.72;;;23.86
67509;BMP280;54354;44.724;11.284;2022-09-30T10:45:23;100852.06;;;23.86
67509;BMP280;54354;44.724;11.284;2022-09-30T10:47:54;100857.22;;;23.90
67509;BMP280;54354;44.724;11.284;2022-09-30T10:50:22;100852.28;;;23.88
67509;BMP280;54354;44.724;11.284;2022-09-30T10:53:03;100850.31;;;23.89
67509;BMP280;54354;44.724;11.284;2022-09-30T10:55:34;100852.03;;;23.92
67509;BMP280;54354;44.724;11.284;2022-09-30T10:58:25;100855.22;;;23.96
67509;BMP280;54354;44.724;11.284;2022-09-30T11:03:50;100855.72;;;23.89
67509;BMP280;54354;44.724;11.284;2022-09-30T11:06:18;100854.72;;;23.92
67509;BMP280;54354;44.724;11.284;2022-09-30T11:08:54;100846.66;;;23.86
67509;BMP280;54354;44.724;11.284;2022-09-30T11:11:31;100854.75;;;23.86
67509;BMP280;54354;44.724;11.284;2022-09-30T11:14:15;100850.84;;;23.87
67509;BMP280;54354;44.724;11.284;2022-09-30T11:17:09;100837.53;;;23.95
67509;BMP280;54354;44.724;11.284;2022-09-30T11:19:48;100842.22;;;23.89
67509;BMP280;54354;44.724;11.284;2022-09-30T11:25:01;100851.56;;;23.93
67509;BMP280;54354;44.724;11.284;2022-09-30T11:28:01;100844.19;;;23.88
67509;BMP280;54354;44.724;11.284;2022-09-30T11:31:05;100844.13;;;24.00
67509;BMP280;54354;44.724;11.284;2022-09-30T11:41:33;100837.59;;;23.84
67509;BMP280;54354;44.724;11.284;2022-09-30T11:58:18;100852.28;;;23.88
67509;BMP280;54354;44.724;11.284;2022-09-30T12:00:49;100847.19;;;23.79
67509;BMP280;54354;44.724;11.284;2022-09-30T12:03:25;100850.38;;;23.78
67509;BMP280;54354;44.724;11.284;2022-09-30T12:05:54;100847.69;;;23.78
67509;BMP280;54354;44.724;11.284;2022-09-30T12:08:27;100858.03;;;23.74
67509;BMP280;54354;44.724;11.284;2022-09-30T12:10:58;100859.75;;;23.71
67509;BMP280;54354;44.724;11.284;2022-09-30T12:13:29;100862.97;;;23.70
67509;BMP280;54354;44.724;11.284;2022-09-30T12:15:57;100868.38;;;23.70
67509;BMP280;54354;44.724;11.284;2022-09-30T12:18:31;100878.69;;;23.65
67509;BMP280;54354;44.724;11.284;2022-09-30T12:21:21;100877.19;;;23.70
67509;BMP280;54354;44.724;11.284;2022-09-30T12:23:58;100880.66;;;23.65
67509;BMP280;54354;44.724;11.284;2022-09-30T12:26:25;100888.53;;;23.63
67509;BMP280;54354;44.724;11.284;2022-09-30T12:28:57;100884.63;;;23.58
67509;BMP280;54354;44.724;11.284;2022-09-30T12:34:58;100890.47;;;23.74
67509;BMP280;54354;44.724;11.284;2022-09-30T12:48:32;100909.19;;;23.66
67509;BMP280;54354;44.724;11.284;2022-09-30T12:50:59;100913.84;;;23.65
67509;BMP280;54354;44.724;11.284;2022-09-30T12:53:30;100902.28;;;23.59
67509;BMP280;54354;44.724;11.284;2022-09-30T12:56:06;100886.84;;;23.60
67509;BMP280;54354;44.724;11.284;2022-09-30T12:58:36;100880.47;;;23.57
67509;BMP280;54354;44.724;11.284;2022-09-30T13:03:47;100890.97;;;23.72
67509;BMP280;54354;44.724;11.284;2022-09-30T13:06:15;100905.22;;;23.67
67509;BMP280;54354;44.724;11.284;2022-09-30T13:11:37;100905.00;;;23.59
67509;BMP280;54354;44.724;11.284;2022-09-30T13:17:23;100905.72;;;23.71
67509;BMP280;54354;44.724;11.284;2022-09-30T13:19:51;100912.63;;;23.61
67509;BMP280;54354;44.724;11.284;2022-09-30T13:25:13;100901.81;;;23.61
67509;BMP280;54354;44.724;11.284;2022-09-30T13:32:43;100916.59;;;23.49
67509;BMP280;54354;44.724;11.284;2022-09-30T13:41:03;100922.00;;;23.49
67509;BMP280;54354;44.724;11.284;2022-09-30T13:45:55;100928.63;;;23.59
67509;BMP280;54354;44.724;11.284;2022-09-30T13:48:27;100930.59;;;23.47
67509;BMP280;54354;44.724;11.284;2022-09-30T13:50:54;100938.69;;;23.47
67509;BMP280;54354;44.724;11.284;2022-09-30T13:53:34;100927.16;;;23.47
67509;BMP280;54354;44.724;11.284;2022-09-30T13:56:15;100925.19;;;23.47
67509;BMP280;54354;44.724;11.284;2022-09-30T14:04:46;100932.06;;;23.54
67509;BMP280;54354;44.724;11.284;2022-09-30T14:10:33;100929.09;;;23.52
67509;BMP280;54354;44.724;11.284;2022-09-30T14:19:02;100929.84;;;23.47
67509;BMP280;54354;44.724;11.284;2022-09-30T14:21:46;100935.00;;;23.45
67509;BMP280;54354;44.724;11.284;2022-09-30T14:31:57;100931.56;;;23.38
67509;BMP280;54354;44.724;11.284;2022-09-30T14:34:25;100927.94;;;23.36
67509;BMP280;54354;44.724;11.284;2022-09-30T14:36:52;100929.38;;;23.37
67509;BMP280;54354;44.724;11.284;2022-09-30T14:39:26;100924.47;;;23.35
67509;BMP280;54354;44.724;11.284;2022-09-30T14:41:56;100927.41;;;23.37
67509;BMP280;54354;44.724;11.284;2022-09-30T14:44:27;100919.81;;;23.36
67509;BMP280;54354;44.724;11.284;2022-09-30T14:46:54;100937.22;;;23.41
67509;BMP280;54354;44.724;11.284;2022-09-30T14:49:28;100932.81;;;23.37
67509;BMP280;54354;44.724;11.284;2022-09-30T14:52:01;100931.38;;;23.36
67509;BMP280;54354;44.724;11.284;2022-09-30T14:54:32;100937.47;;;23.37
67509;BMP280;54354;44.724;11.284;2022-09-30T14:56:59;100936.03;;;23.36
67509;BMP280;54354;44.724;11.284;2022-09-30T14:59:33;100940.44;;;23.33
67509;BMP280;54354;44.724;11.284;2022-09-30T15:02:16;100944.34;;;23.38
67509;BMP280;54354;44.724;11.284;2022-09-30T15:04:49;100949.28;;;23.34
67509;BMP280;54354;44.724;11.284;2022-09-30T15:07:16;100950.00;;;23.34
67509;BMP280;54354;44.724;11.284;2022-09-30T15:09:44;100950.03;;;23.29
67509;BMP280;54354;44.724;11.284;2022-09-30T15:12:13;100951.50;;;23.30
67509;BMP280;54354;44.724;11.284;2022-09-30T15:14:51;100963.78;;;23.31
67509;BMP280;54354;44.724;11.284;2022-09-30T15:17:23;100958.84;;;23.29
67509;BMP280;54354;44.724;11.284;2022-09-30T15:19:49;100962.56;;;23.32
67509;BMP280;54354;44.724;11.284;2022-09-30T15:22:16;100962.56;;;23.32
67509;BMP280;54354;44.724;11.284;2022-09-30T15:24:43;100971.16;;;23.30
67509;BMP280;54354;44.724;11.284;2022-09-30T15:27:18;100970.63;;;23.26
67509;BMP280;54354;44.724;11.284;2022-09-30T15:29:59;100975.06;;;23.29
67509;BMP280;54354;44.724;11.284;2022-09-30T15:32:27;100986.84;;;23.26
67509;BMP280;54354;44.724;11.284;2022-09-30T15:34:54;100984.16;;;23.26
67509;BMP280;54354;44.724;11.284;2022-09-30T15:37:26;100984.91;;;23.21
67509;BMP280;54354;44.724;11.284;2022-09-30T15:39:58;100990.53;;;23.23
67509;BMP280;54354;44.724;11.284;2022-09-30T15:42:55;100991.03;;;23.22
67509;BMP280;54354;44.724;11.284;2022-09-30T15:47:59;101000.63;;;23.17
67509;BMP280;54354;44.724;11.284;2022-09-30T15:53:14;101005.28;;;23.28
67509;BMP280;54354;44.724;11.284;2022-09-30T15:55:45;101009.22;;;23.21
67509;BMP280;54354;44.724;11.284;2022-09-30T15:58:36;101010.44;;;23.26
67509;BMP280;54354;44.724;11.284;2022-09-30T16:01:31;101018.28;;;23.24
67509;BMP280;54354;44.724;11.284;2022-09-30T16:03:59;101023.69;;;23.18
67509;BMP280;54354;44.724;11.284;2022-09-30T16:09:01;101023.22;;;23.14
67509;BMP280;54354;44.724;11.284;2022-09-30T16:53:44;101065.69;;;23.14
67509;BMP280;54354;44.724;11.284;2022-09-30T16:56:19;101065.22;;;23.10
67509;BMP280;54354;44.724;11.284;2022-09-30T16:58:45;101064.22;;;23.13
67509;BMP280;54354;44.724;11.284;2022-09-30T17:01:19;101078.44;;;23.07
67509;BMP280;54354;44.724;11.284;2022-09-30T17:03:45;101086.81;;;23.10
67509;BMP280;54354;44.724;11.284;2022-09-30T17:06:12;101093.41;;;23.08
67509;BMP280;54354;44.724;11.284;2022-09-30T17:08:38;101103.75;;;23.10
67509;BMP280;54354;44.724;11.284;2022-09-30T17:11:03;101111.88;;;23.10
67509;BMP280;54354;44.724;11.284;2022-09-30T17:13:29;101116.25;;;23.07
67509;BMP280;54354;44.724;11.284;2022-09-30T17:15:55;101111.84;;;23.04
67509;BMP280;54354;44.724;11.284;2022-09-30T17:18:21;101128.03;;;23.04
67509;BMP280;54354;44.724;11.284;2022-09-30T17:20:47;101124.34;;;23.02
67509;BMP280;54354;44.724;11.284;2022-09-30T17:23:21;101128.28;;;23.01
67509;BMP280;54354;44.724;11.284;2022-09-30T17:25:47;101130.25;;;23.00
67509;BMP280;54354;44.724;11.284;2022-09-30T17:28:13;101130.97;;;23.01
67509;BMP280;54354;44.724;11.284;2022-09-30T17:30:40;101128.28;;;23.01
67509;BMP280;54354;44.724;11.284;2022-09-30T17:33:07;101128.03;;;22.99
67509;BMP280;54354;44.724;11.284;2022-09-30T17:35:35;101125.81;;;22.97
67509;BMP280;54354;44.724;11.284;2022-09-30T17:38:05;101114.97;;;22.92
67509;BMP280;54354;44.724;11.284;2022-09-30T17:40:31;101117.72;;;22.97
67509;BMP280;54354;44.724;11.284;2022-09-30T17:43:15;101113.06;;;22.98
67509;BMP280;54354;44.724;11.284;2022-09-30T17:45:42;101118.91;;;22.96
67509;BMP280;54354;44.724;11.284;2022-09-30T17:48:09;101114.25;;;22.97
67509;BMP280;54354;44.724;11.284;2022-09-30T17:50:37;101110.59;;;22.94
67509;BMP280;54354;44.724;11.284;2022-09-30T17:53:02;101124.31;;;22.96
67509;BMP280;54354;44.724;11.284;2022-09-30T17:55:29;101131.69;;;22.96
67509;BMP280;54354;44.724;11.284;2022-09-30T17:57:54;101123.31;;;22.94
67509;BMP280;54354;44.724;11.284;2022-09-30T18:00:21;101132.19;;;22.94
67509;BMP280;54354;44.724;11.284;2022-09-30T18:02:46;101137.81;;;22.96
67509;BMP280;54354;44.724;11.284;2022-09-30T18:05:13;101128.25;;;22.95
67509;BMP280;54354;44.724;11.284;2022-09-30T18:07:39;101130.22;;;22.95
67509;BMP280;54354;44.724;11.284;2022-09-30T18:10:05;101126.53;;;22.92
67509;BMP280;54354;44.724;11.284;2022-09-30T18:12:32;101128.22;;;22.90
67509;BMP280;54354;44.724;11.284;2022-09-30T18:14:59;101126.75;;;22.89